sensor_id;sensor_type;location;lat;lon;timestamp;temperature;humidity
31369;DHT22;18004;48.416;10.066;2023-02-01T00:01:24;2.80;99.90
31369;DHT22;18004;48.416;10.066;2023-02-01T00:03:50;2.80;99.90
31369;DHT22;18004;48.416;10.066;2023-02-01T00:06:15;2.80;99.90
31369;DHT22;18004;48.416;10.066;2023-02-01T00:08:41;2.80;99.90
31369;DHT22;18004;48.416;10.066;2023-02-01T00:11:08;2.80;99.90
31369;DHT22;18004;48.416;10.066;2023-02-01T00:13:35;2.80;99.90
31369;DHT22;18004;48.416;10.066;2023-02-01T00:16:10;2.80;99.90
31369;DHT22;18004;48.416;10.066;2023-02-01T00:18:37;2.80;99.90
31369;DHT22;18004;48.416;10.066;2023-02-01T00:21:03;2.80;99.90
31369;DHT22;18004;48.416;10.066;2023-02-01T00:23:31;2.80;99.90
31369;DHT22;18004;48.416;10.066;2023-02-01T00:25:59;2.80;99.90
31369;DHT22;18004;48.416;10.066;2023-02-01T00:28:25;2.70;99.90
31369;DHT22;18004;48.416;10.066;2023-02-01T00:30:57;2.70;99.90
31369;DHT22;18004;48.416;10.066;2023-02-01T00:33:23;2.70;99.90
31369;DHT22;18004;48.416;10.066;2023-02-01T00:35:49;2.70;99.90
31369;DHT22;18004;48.416;10.066;2023-02-01T00:38:15;2.70;99.90
31369;DHT22;18004;48.416;10.066;2023-02-01T00:40:40;2.70;99.90
31369;DHT22;18004;48.416;10.066;2023-02-01T00:43:06;2.70;99.90
31369;DHT22;18004;48.416;10.066;2023-02-01T00:45:31;2.70;99.90
31369;DHT22;18004;48.416;10.066;2023-02-01T00:47:57;2.70;99.90
31369;DHT22;18004;48.416;10.066;2023-02-01T00:50:23;2.70;99.90
31369;DHT22;18004;48.416;10.066;2023-02-01T00:52:48;2.70;99.90
31369;DHT22;18004;48.416;10.066;2023-02-01T00:55:14;2.70;99.90
31369;DHT22;18004;48.416;10.066;2023-02-01T00:57:40;2.70;99.90
31369;DHT22;18004;48.416;10.066;2023-02-01T01:00:05;2.70;99.90
31369;DHT22;18004;48.416;10.066;2023-02-01T01:02:31;2.70;99.90
31369;DHT22;18004;48.416;10.066;2023-02-01T01:04:57;2.70;99.90
31369;DHT22;18004;48.416;10.066;2023-02-01T01:07:22;2.70;99.90
31369;DHT22;18004;48.416;10.066;2023-02-01T01:09:48;2.70;99.90
31369;DHT22;18004;48.416;10.066;2023-02-01T01:12:14;2.70;99.90
31369;DHT22;18004;48.416;10.066;2023-02-01T01:14:39;2.60;99.90
31369;DHT22;18004;48.416;10.066;2023-02-01T01:17:05;2.70;99.90
31369;DHT22;18004;48.416;10.066;2023-02-01T01:19:30;2.70;99.90
31369;DHT22;18004;48.416;10.066;2023-02-01T01:21:56;2.60;99.90
31369;DHT22;18004;48.416;10.066;2023-02-01T01:24:22;2.60;99.90
31369;DHT22;18004;48.416;10.066;2023-02-01T01:26:47;2.60;99.90
31369;DHT22;18004;48.416;10.066;2023-02-01T01:29:13;2.60;99.90
31369;DHT22;18004;48.416;10.066;2023-02-01T01:31:39;2.60;99.90
31369;DHT22;18004;48.416;10.066;2023-02-01T01:34:04;2.60;99.90
31369;DHT22;18004;48.416;10.066;2023-02-01T01:36:30;2.60;99.90
31369;DHT22;18004;48.416;10.066;2023-02-01T01:38:55;2.60;99.90
31369;DHT22;18004;48.416;10.066;2023-02-01T01:41:26;2.60;99.90
31369;DHT22;18004;48.416;10.066;2023-02-01T01:43:53;2.60;99.90
31369;DHT22;18004;48.416;10.066;2023-02-01T01:46:29;2.50;99.90
31369;DHT22;18004;48.416;10.066;2023-02-01T01:48:56;2.50;99.90
31369;DHT22;18004;48.416;10.066;2023-02-01T01:51:23;2.50;99.90
31369;DHT22;18004;48.416;10.066;2023-02-01T01:53:53;2.50;99.90
31369;DHT22;18004;48.416;10.066;2023-02-01T01:56:21;2.50;99.90
31369;DHT22;18004;48.416;10.066;2023-02-01T01:58:46;2.60;99.90
31369;DHT22;18004;48.416;10.066;2023-02-01T02:01:12;2.50;99.90
31369;DHT22;18004;48.416;10.066;2023-02-01T02:03:39;2.50;99.90
31369;DHT22;18004;48.416;10.066;2023-02-01T02:06:08;2.50;99.90
31369;DHT22;18004;48.416;10.066;2023-02-01T02:08:39;2.60;99.90
31369;DHT22;18004;48.416;10.066;2023-02-01T02:11:04;2.50;99.90
31369;DHT22;18004;48.416;10.066;2023-02-01T02:18:40;2.50;99.90
31369;DHT22;18004;48.416;10.066;2023-02-01T02:21:43;2.50;99.90
31369;DHT22;18004;48.416;10.066;2023-02-01T02:26:44;2.50;99.90
31369;DHT22;18004;48.416;10.066;2023-02-01T02:41:45;2.40;99.90
31369;DHT22;18004;48.416;10.066;2023-02-01T02:44:34;2.50;99.90
31369;DHT22;18004;48.416;10.066;2023-02-01T02:47:24;2.50;99.90
31369;DHT22;18004;48.416;10.066;2023-02-01T02:52:43;2.50;99.90
31369;DHT22;18004;48.416;10.066;2023-02-01T02:55:30;2.50;99.90
31369;DHT22;18004;48.416;10.066;2023-02-01T02:57:58;2.50;99.90
31369;DHT22;18004;48.416;10.066;2023-02-01T03:00:43;2.50;99.90
31369;DHT22;18004;48.416;10.066;2023-02-01T03:03:28;2.50;99.90
31369;DHT22;18004;48.416;10.066;2023-02-01T03:06:13;2.50;99.90
31369;DHT22;18004;48.416;10.066;2023-02-01T03:08:41;2.40;99.90
31369;DHT22;18004;48.416;10.066;2023-02-01T03:11:11;2.40;99.90
31369;DHT22;18004;48.416;10.066;2023-02-01T03:16:20;2.40;99.90
31369;DHT22;18004;48.416;10.066;2023-02-01T03:18:57;2.30;99.90
31369;DHT22;18004;48.416;10.066;2023-02-01T03:23:56;2.40;99.90
31369;DHT22;18004;48.416;10.066;2023-02-01T03:26:23;2.40;99.90
31369;DHT22;18004;48.416;10.066;2023-02-01T03:28:54;2.40;99.90
31369;DHT22;18004;48.416;10.066;2023-02-01T03:31:21;2.40;99.90
31369;DHT22;18004;48.416;10.066;2023-02-01T03:33:47;2.40;99.90
31369;DHT22;18004;48.416;10.066;2023-02-01T03:38:57;2.40;99.90
31369;DHT22;18004;48.416;10.066;2023-02-01T03:41:36;2.40;99.90
31369;DHT22;18004;48.416;10.066;2023-02-01T03:44:23;2.40;99.90
31369;DHT22;18004;48.416;10.066;2023-02-01T03:47:00;2.40;99.90
31369;DHT22;18004;48.416;10.066;2023-02-01T03:49:32;2.50;99.90
31369;DHT22;18004;48.416;10.066;2023-02-01T03:51:59;2.50;99.90
31369;DHT22;18004;48.416;10.066;2023-02-01T03:54:25;2.50;99.90
31369;DHT22;18004;48.416;10.066;2023-02-01T03:56:52;2.40;99.90
31369;DHT22;18004;48.416;10.066;2023-02-01T03:59:19;2.40;99.90
31369;DHT22;18004;48.416;10.066;2023-02-01T04:01:45;2.40;99.90
31369;DHT22;18004;48.416;10.066;2023-02-01T04:04:10;2.40;99.90
31369;DHT22;18004;48.416;10.066;2023-02-01T04:06:51;2.40;99.90
31369;DHT22;18004;48.416;10.066;2023-02-01T04:09:19;2.40;99.90
31369;DHT22;18004;48.416;10.066;2023-02-01T04:11:45;2.40;99.90
31369;DHT22;18004;48.416;10.066;2023-02-01T04:14:11;2.30;99.90
31369;DHT22;18004;48.416;10.066;2023-02-01T04:16:36;2.40;99.90
31369;DHT22;18004;48.416;10.066;2023-02-01T04:19:02;2.30;99.90
31369;DHT22;18004;48.416;10.066;2023-02-01T04:21:28;2.40;99.90
31369;DHT22;18004;48.416;10.066;2023-02-01T04:23:54;2.30;99.90
31369;DHT22;18004;48.416;10.066;2023-02-01T04:26:20;2.30;99.90
31369;DHT22;18004;48.416;10.066;2023-02-01T04:28:46;2.30;99.90
31369;DHT22;18004;48.416;10.066;2023-02-01T04:31:15;2.30;99.90
31369;DHT22;18004;48.416;10.066;2023-02-01T04:33:41;2.30;99.90
31369;DHT22;18004;48.416;10.066;2023-02-01T04:36:06;2.40;99.90
31369;DHT22;18004;48.416;10.066;2023-02-01T04:38:32;2.40;99.90
31369;DHT22;18004;48.416;10.066;2023-02-01T04:40:58;2.30;99.90
31369;DHT22;18004;48.416;10.066;2023-02-01T04:43:24;2.40;99.90
31369;DHT22;18004;48.416;10.066;2023-02-01T04:45:50;2.40;99.90
31369;DHT22;18004;48.416;10.066;2023-02-01T04:48:16;2.40;99.90
31369;DHT22;18004;48.416;10.066;2023-02-01T04:50:42;2.40;99.90
31369;DHT22;18004;48.416;10.066;2023-02-01T04:53:10;2.40;99.90
31369;DHT22;18004;48.416;10.066;2023-02-01T04:55:36;2.40;99.90
31369;DHT22;18004;48.416;10.066;2023-02-01T04:58:01;2.50;99.90
31369;DHT22;18004;48.416;10.066;2023-02-01T05:00:27;2.50;99.90
31369;DHT22;18004;48.416;10.066;2023-02-01T05:02:52;2.50;99.90
31369;DHT22;18004;48.416;10.066;2023-02-01T05:05:18;2.50;99.90
31369;DHT22;18004;48.416;10.066;2023-02-01T05:07:45;2.50;99.90
31369;DHT22;18004;48.416;10.066;2023-02-01T05:10:11;2.50;99.90
31369;DHT22;18004;48.416;10.066;2023-02-01T05:12:36;2.50;99.90
31369;DHT22;18004;48.416;10.066;2023-02-01T05:15:21;2.50;99.90
31369;DHT22;18004;48.416;10.066;2023-02-01T05:17:46;2.50;99.90
31369;DHT22;18004;48.416;10.066;2023-02-01T05:20:12;2.50;99.90
31369;DHT22;18004;48.416;10.066;2023-02-01T05:22:37;2.50;99.90
31369;DHT22;18004;48.416;10.066;2023-02-01T05:25:03;2.50;99.90
31369;DHT22;18004;48.416;10.066;2023-02-01T05:27:29;2.50;99.90
31369;DHT22;18004;48.416;10.066;2023-02-01T05:29:55;2.50;99.90
31369;DHT22;18004;48.416;10.066;2023-02-01T05:32:21;2.50;99.90
31369;DHT22;18004;48.416;10.066;2023-02-01T05:34:47;2.50;99.90
31369;DHT22;18004;48.416;10.066;2023-02-01T05:37:12;2.50;99.90
31369;DHT22;18004;48.416;10.066;2023-02-01T05:39:41;2.50;99.90
31369;DHT22;18004;48.416;10.066;2023-02-01T05:42:07;2.50;99.90
31369;DHT22;18004;48.416;10.066;2023-02-01T05:44:32;2.50;99.90
31369;DHT22;18004;48.416;10.066;2023-02-01T05:46:58;2.40;99.90
31369;DHT22;18004;48.416;10.066;2023-02-01T05:49:24;2.50;99.90
31369;DHT22;18004;48.416;10.066;2023-02-01T05:51:50;2.50;99.90
31369;DHT22;18004;48.416;10.066;2023-02-01T05:54:15;2.50;99.90
31369;DHT22;18004;48.416;10.066;2023-02-01T05:56:41;2.50;99.90
31369;DHT22;18004;48.416;10.066;2023-02-01T05:59:07;2.50;99.90
31369;DHT22;18004;48.416;10.066;2023-02-01T06:01:33;2.50;99.90
31369;DHT22;18004;48.416;10.066;2023-02-01T06:03:58;2.50;99.90
31369;DHT22;18004;48.416;10.066;2023-02-01T06:06:24;2.50;99.90
31369;DHT22;18004;48.416;10.066;2023-02-01T06:08:50;2.50;99.90
31369;DHT22;18004;48.416;10.066;2023-02-01T06:11:15;2.50;99.90
31369;DHT22;18004;48.416;10.066;2023-02-01T06:13:41;2.50;99.90
31369;DHT22;18004;48.416;10.066;2023-02-01T06:16:06;2.50;99.90
31369;DHT22;18004;48.416;10.066;2023-02-01T06:18:33;2.50;99.90
31369;DHT22;18004;48.416;10.066;2023-02-01T06:20:59;2.60;99.90
31369;DHT22;18004;48.416;10.066;2023-02-01T06:23:26;2.60;99.90
31369;DHT22;18004;48.416;10.066;2023-02-01T06:25:52;2.60;99.90
31369;DHT22;18004;48.416;10.066;2023-02-01T06:28:17;2.50;99.90
31369;DHT22;18004;48.416;10.066;2023-02-01T06:30:43;2.60;99.90
31369;DHT22;18004;48.416;10.066;2023-02-01T06:33:12;2.60;99.90
31369;DHT22;18004;48.416;10.066;2023-02-01T06:35:40;2.60;99.90
31369;DHT22;18004;48.416;10.066;2023-02-01T06:38:07;2.60;99.90
31369;DHT22;18004;48.416;10.066;2023-02-01T06:40:33;2.60;99.90
31369;DHT22;18004;48.416;10.066;2023-02-01T06:42:59;2.60;99.90
31369;DHT22;18004;48.416;10.066;2023-02-01T06:45:24;2.60;99.90
31369;DHT22;18004;48.416;10.066;2023-02-01T06:47:50;2.60;99.90
31369;DHT22;18004;48.416;10.066;2023-02-01T06:50:16;2.60;99.90
31369;DHT22;18004;48.416;10.066;2023-02-01T06:52:41;2.70;99.90
31369;DHT22;18004;48.416;10.066;2023-02-01T06:55:07;2.70;99.90
31369;DHT22;18004;48.416;10.066;2023-02-01T06:57:33;2.70;99.90
31369;DHT22;18004;48.416;10.066;2023-02-01T07:00:02;2.70;99.90
31369;DHT22;18004;48.416;10.066;2023-02-01T07:02:28;2.70;99.90
31369;DHT22;18004;48.416;10.066;2023-02-01T07:04:54;2.70;99.90
31369;DHT22;18004;48.416;10.066;2023-02-01T07:07:19;2.80;99.90
31369;DHT22;18004;48.416;10.066;2023-02-01T07:09:48;2.80;99.90
31369;DHT22;18004;48.416;10.066;2023-02-01T07:12:14;2.80;99.90
31369;DHT22;18004;48.416;10.066;2023-02-01T07:14:40;2.90;99.90
31369;DHT22;18004;48.416;10.066;2023-02-01T07:17:05;2.80;99.90
31369;DHT22;18004;48.416;10.066;2023-02-01T07:19:31;2.80;99.90
31369;DHT22;18004;48.416;10.066;2023-02-01T07:21:56;2.80;99.90
31369;DHT22;18004;48.416;10.066;2023-02-01T07:24:22;2.80;99.90
31369;DHT22;18004;48.416;10.066;2023-02-01T07:26:48;2.90;99.90
31369;DHT22;18004;48.416;10.066;2023-02-01T07:29:19;2.80;99.90
31369;DHT22;18004;48.416;10.066;2023-02-01T07:31:44;2.90;99.90
31369;DHT22;18004;48.416;10.066;2023-02-01T07:34:10;2.90;99.90
31369;DHT22;18004;48.416;10.066;2023-02-01T07:36:36;2.80;99.90
31369;DHT22;18004;48.416;10.066;2023-02-01T07:39:02;2.80;99.90
31369;DHT22;18004;48.416;10.066;2023-02-01T07:41:28;2.90;99.90
31369;DHT22;18004;48.416;10.066;2023-02-01T07:43:53;2.90;99.90
31369;DHT22;18004;48.416;10.066;2023-02-01T07:46:19;2.90;99.90
31369;DHT22;18004;48.416;10.066;2023-02-01T07:48:45;2.90;99.90
31369;DHT22;18004;48.416;10.066;2023-02-01T07:51:12;2.90;99.90
31369;DHT22;18004;48.416;10.066;2023-02-01T07:53:38;3.00;99.90
31369;DHT22;18004;48.416;10.066;2023-02-01T07:56:08;3.00;99.90
31369;DHT22;18004;48.416;10.066;2023-02-01T07:58:34;3.00;99.90
31369;DHT22;18004;48.416;10.066;2023-02-01T08:01:00;3.00;99.90
31369;DHT22;18004;48.416;10.066;2023-02-01T08:03:44;3.00;99.90
31369;DHT22;18004;48.416;10.066;2023-02-01T08:06:10;3.00;99.90
31369;DHT22;18004;48.416;10.066;2023-02-01T08:08:36;3.00;99.90
31369;DHT22;18004;48.416;10.066;2023-02-01T08:11:02;3.10;99.90
31369;DHT22;18004;48.416;10.066;2023-02-01T08:13:28;3.00;99.90
31369;DHT22;18004;48.416;10.066;2023-02-01T08:15:57;3.10;99.90
31369;DHT22;18004;48.416;10.066;2023-02-01T08:18:23;3.10;99.90
31369;DHT22;18004;48.416;10.066;2023-02-01T08:20:49;3.10;99.90
31369;DHT22;18004;48.416;10.066;2023-02-01T08:23:14;3.20;99.90
31369;DHT22;18004;48.416;10.066;2023-02-01T08:25:40;3.20;99.90
31369;DHT22;18004;48.416;10.066;2023-02-01T08:28:06;3.20;99.90
31369;DHT22;18004;48.416;10.066;2023-02-01T08:30:32;3.30;99.90
31369;DHT22;18004;48.416;10.066;2023-02-01T08:32:58;3.30;99.90
31369;DHT22;18004;48.416;10.066;2023-02-01T08:35:24;3.30;99.90
31369;DHT22;18004;48.416;10.066;2023-02-01T08:37:50;3.30;99.90
31369;DHT22;18004;48.416;10.066;2023-02-01T08:40:16;3.30;99.90
31369;DHT22;18004;48.416;10.066;2023-02-01T08:42:41;3.30;99.90
31369;DHT22;18004;48.416;10.066;2023-02-01T08:45:16;3.40;99.90
31369;DHT22;18004;48.416;10.066;2023-02-01T08:47:42;3.40;99.90
31369;DHT22;18004;48.416;10.066;2023-02-01T08:50:08;3.30;99.90
31369;DHT22;18004;48.416;10.066;2023-02-01T08:52:34;3.30;99.90
31369;DHT22;18004;48.416;10.066;2023-02-01T08:55:00;3.30;99.90
31369;DHT22;18004;48.416;10.066;2023-02-01T08:57:25;3.30;99.90
31369;DHT22;18004;48.416;10.066;2023-02-01T08:59:51;3.40;99.90
31369;DHT22;18004;48.416;10.066;2023-02-01T09:02:17;3.40;99.90
31369;DHT22;18004;48.416;10.066;2023-02-01T09:04:43;3.50;99.90
31369;DHT22;18004;48.416;10.066;2023-02-01T09:07:09;3.60;99.90
31369;DHT22;18004;48.416;10.066;2023-02-01T09:09:35;3.60;99.90
31369;DHT22;18004;48.416;10.066;2023-02-01T09:12:01;3.60;99.90
31369;DHT22;18004;48.416;10.066;2023-02-01T09:14:27;3.70;99.90
31369;DHT22;18004;48.416;10.066;2023-02-01T09:16:52;3.70;99.90
31369;DHT22;18004;48.416;10.066;2023-02-01T09:19:18;3.70;99.90
31369;DHT22;18004;48.416;10.066;2023-02-01T09:21:43;3.80;99.90
31369;DHT22;18004;48.416;10.066;2023-02-01T09:24:12;3.80;99.90
31369;DHT22;18004;48.416;10.066;2023-02-01T09:26:38;3.70;99.90
31369;DHT22;18004;48.416;10.066;2023-02-01T09:29:04;3.70;99.90
31369;DHT22;18004;48.416;10.066;2023-02-01T09:31:35;3.80;99.90
31369;DHT22;18004;48.416;10.066;2023-02-01T09:34:01;3.70;99.90
31369;DHT22;18004;48.416;10.066;2023-02-01T09:36:26;3.80;99.90
31369;DHT22;18004;48.416;10.066;2023-02-01T09:38:52;3.70;99.90
31369;DHT22;18004;48.416;10.066;2023-02-01T09:41:26;3.70;99.90
31369;DHT22;18004;48.416;10.066;2023-02-01T09:46:28;3.80;99.90
31369;DHT22;18004;48.416;10.066;2023-02-01T09:48:55;3.80;99.90
31369;DHT22;18004;48.416;10.066;2023-02-01T09:51:25;3.80;99.90
31369;DHT22;18004;48.416;10.066;2023-02-01T09:54:13;3.90;99.90
31369;DHT22;18004;48.416;10.066;2023-02-01T09:56:41;3.90;99.90
31369;DHT22;18004;48.416;10.066;2023-02-01T10:01:39;3.90;99.90
31369;DHT22;18004;48.416;10.066;2023-02-01T10:04:05;3.90;99.90
31369;DHT22;18004;48.416;10.066;2023-02-01T10:06:35;3.90;99.90
31369;DHT22;18004;48.416;10.066;2023-02-01T10:11:30;4.00;99.90
31369;DHT22;18004;48.416;10.066;2023-02-01T10:14:08;3.90;99.90
31369;DHT22;18004;48.416;10.066;2023-02-01T10:16:38;3.90;99.90
31369;DHT22;18004;48.416;10.066;2023-02-01T10:19:17;3.90;99.90
31369;DHT22;18004;48.416;10.066;2023-02-01T10:26:48;3.80;99.90
31369;DHT22;18004;48.416;10.066;2023-02-01T10:29:16;3.80;99.90
31369;DHT22;18004;48.416;10.066;2023-02-01T10:31:43;3.70;99.90
31369;DHT22;18004;48.416;10.066;2023-02-01T10:34:23;3.70;99.90
31369;DHT22;18004;48.416;10.066;2023-02-01T10:39:16;3.80;99.90
31369;DHT22;18004;48.416;10.066;2023-02-01T10:41:41;3.80;99.90
31369;DHT22;18004;48.416;10.066;2023-02-01T10:44:15;3.70;99.90
31369;DHT22;18004;48.416;10.066;2023-02-01T10:46:42;3.80;99.90
31369;DHT22;18004;48.416;10.066;2023-02-01T10:49:24;3.70;99.90
31369;DHT22;18004;48.416;10.066;2023-02-01T10:51:59;3.80;99.90
31369;DHT22;18004;48.416;10.066;2023-02-01T10:54:34;3.80;99.90
31369;DHT22;18004;48.416;10.066;2023-02-01T10:57:00;3.90;99.90
31369;DHT22;18004;48.416;10.066;2023-02-01T10:59:27;3.90;99.90
31369;DHT22;18004;48.416;10.066;2023-02-01T11:02:00;3.90;99.90
31369;DHT22;18004;48.416;10.066;2023-02-01T11:04:27;3.90;99.90
31369;DHT22;18004;48.416;10.066;2023-02-01T11:07:07;3.90;99.90
31369;DHT22;18004;48.416;10.066;2023-02-01T11:09:33;3.90;99.90
31369;DHT22;18004;48.416;10.066;2023-02-01T11:12:00;3.90;99.90
31369;DHT22;18004;48.416;10.066;2023-02-01T11:14:34;3.90;99.90
31369;DHT22;18004;48.416;10.066;2023-02-01T11:17:01;3.90;99.90
31369;DHT22;18004;48.416;10.066;2023-02-01T11:19:27;3.90;99.90
31369;DHT22;18004;48.416;10.066;2023-02-01T11:21:54;3.90;99.90
31369;DHT22;18004;48.416;10.066;2023-02-01T11:26:49;3.90;99.90
31369;DHT22;18004;48.416;10.066;2023-02-01T11:29:17;3.90;99.90
31369;DHT22;18004;48.416;10.066;2023-02-01T11:31:45;3.90;99.90
31369;DHT22;18004;48.416;10.066;2023-02-01T11:34:18;3.90;99.90
31369;DHT22;18004;48.416;10.066;2023-02-01T11:36:45;3.90;99.90
31369;DHT22;18004;48.416;10.066;2023-02-01T11:49:45;4.20;99.90
31369;DHT22;18004;48.416;10.066;2023-02-01T11:54:56;4.20;99.90
31369;DHT22;18004;48.416;10.066;2023-02-01T12:04:57;4.30;99.90
31369;DHT22;18004;48.416;10.066;2023-02-01T12:07:29;4.40;99.90
31369;DHT22;18004;48.416;10.066;2023-02-01T12:12:25;4.40;99.90
31369;DHT22;18004;48.416;10.066;2023-02-01T12:17:42;4.40;99.90
31369;DHT22;18004;48.416;10.066;2023-02-01T12:23:21;4.40;99.90
31369;DHT22;18004;48.416;10.066;2023-02-01T12:26:06;4.50;99.90
31369;DHT22;18004;48.416;10.066;2023-02-01T12:28:31;4.50;99.90
31369;DHT22;18004;48.416;10.066;2023-02-01T12:31:16;4.50;99.90
31369;DHT22;18004;48.416;10.066;2023-02-01T12:33:52;4.40;99.90
31369;DHT22;18004;48.416;10.066;2023-02-01T12:47:04;4.40;99.90
31369;DHT22;18004;48.416;10.066;2023-02-01T12:49:50;4.40;99.90
31369;DHT22;18004;48.416;10.066;2023-02-01T12:52:20;4.40;99.90
31369;DHT22;18004;48.416;10.066;2023-02-01T12:54:52;4.40;99.90
31369;DHT22;18004;48.416;10.066;2023-02-01T12:57:26;4.40;99.90
31369;DHT22;18004;48.416;10.066;2023-02-01T12:59:56;4.40;99.90
31369;DHT22;18004;48.416;10.066;2023-02-01T13:04:59;4.40;99.90
31369;DHT22;18004;48.416;10.066;2023-02-01T13:07:30;4.40;99.90
31369;DHT22;18004;48.416;10.066;2023-02-01T13:10:40;4.50;99.90
31369;DHT22;18004;48.416;10.066;2023-02-01T13:15:40;4.40;99.90
31369;DHT22;18004;48.416;10.066;2023-02-01T13:18:06;4.40;99.90
31369;DHT22;18004;48.416;10.066;2023-02-01T13:20:39;4.50;99.90
31369;DHT22;18004;48.416;10.066;2023-02-01T13:25:49;4.50;99.90
31369;DHT22;18004;48.416;10.066;2023-02-01T13:28:26;4.50;99.90
31369;DHT22;18004;48.416;10.066;2023-02-01T13:30:57;4.60;99.90
31369;DHT22;18004;48.416;10.066;2023-02-01T13:33:28;4.60;99.90
31369;DHT22;18004;48.416;10.066;2023-02-01T13:41:24;4.70;94.40
31369;DHT22;18004;48.416;10.066;2023-02-01T13:43:53;4.80;93.60
31369;DHT22;18004;48.416;10.066;2023-02-01T13:46:19;4.80;92.90
31369;DHT22;18004;48.416;10.066;2023-02-01T13:48:49;4.80;93.50
31369;DHT22;18004;48.416;10.066;2023-02-01T13:51:32;4.90;91.90
31369;DHT22;18004;48.416;10.066;2023-02-01T13:53:58;4.90;90.60
31369;DHT22;18004;48.416;10.066;2023-02-01T13:56:24;4.90;92.60
31369;DHT22;18004;48.416;10.066;2023-02-01T13:58:50;4.90;91.90
31369;DHT22;18004;48.416;10.066;2023-02-01T14:03:55;4.90;91.20
31369;DHT22;18004;48.416;10.066;2023-02-01T14:11:43;4.90;86.20
31369;DHT22;18004;48.416;10.066;2023-02-01T14:24:24;4.80;91.80
31369;DHT22;18004;48.416;10.066;2023-02-01T14:26:53;4.80;92.80
31369;DHT22;18004;48.416;10.066;2023-02-01T14:29:36;4.80;91.80
31369;DHT22;18004;48.416;10.066;2023-02-01T14:32:04;4.80;92.70
31369;DHT22;18004;48.416;10.066;2023-02-01T14:34:34;4.80;93.50
31369;DHT22;18004;48.416;10.066;2023-02-01T14:37:02;4.70;92.90
31369;DHT22;18004;48.416;10.066;2023-02-01T14:39:30;4.70;92.00
31369;DHT22;18004;48.416;10.066;2023-02-01T14:41:58;4.70;92.80
31369;DHT22;18004;48.416;10.066;2023-02-01T14:44:34;4.80;92.40
31369;DHT22;18004;48.416;10.066;2023-02-01T14:47:08;4.70;92.60
31369;DHT22;18004;48.416;10.066;2023-02-01T14:49:38;4.70;92.90
31369;DHT22;18004;48.416;10.066;2023-02-01T14:52:06;4.70;92.80
31369;DHT22;18004;48.416;10.066;2023-02-01T14:54:35;4.80;92.70
31369;DHT22;18004;48.416;10.066;2023-02-01T14:57:01;4.70;92.50
31369;DHT22;18004;48.416;10.066;2023-02-01T14:59:27;4.70;92.20
31369;DHT22;18004;48.416;10.066;2023-02-01T15:01:58;4.80;92.80
31369;DHT22;18004;48.416;10.066;2023-02-01T15:04:26;4.80;91.80
31369;DHT22;18004;48.416;10.066;2023-02-01T15:06:56;4.80;91.00
31369;DHT22;18004;48.416;10.066;2023-02-01T15:09:29;4.80;91.00
31369;DHT22;18004;48.416;10.066;2023-02-01T15:12:14;4.80;91.10
31369;DHT22;18004;48.416;10.066;2023-02-01T15:14:42;4.80;91.00
31369;DHT22;18004;48.416;10.066;2023-02-01T15:17:28;4.80;91.80
31369;DHT22;18004;48.416;10.066;2023-02-01T15:20:00;4.80;92.60
31369;DHT22;18004;48.416;10.066;2023-02-01T15:22:27;4.80;91.40
31369;DHT22;18004;48.416;10.066;2023-02-01T15:24:57;4.70;92.10
31369;DHT22;18004;48.416;10.066;2023-02-01T15:27:23;4.80;92.10
31369;DHT22;18004;48.416;10.066;2023-02-01T15:29:48;4.70;92.30
31369;DHT22;18004;48.416;10.066;2023-02-01T15:32:34;4.70;92.20
31369;DHT22;18004;48.416;10.066;2023-02-01T15:35:00;4.80;92.70
31369;DHT22;18004;48.416;10.066;2023-02-01T15:37:26;4.70;93.50
31369;DHT22;18004;48.416;10.066;2023-02-01T15:42:53;4.70;93.10
31369;DHT22;18004;48.416;10.066;2023-02-01T15:45:20;4.70;93.40
31369;DHT22;18004;48.416;10.066;2023-02-01T15:47:46;4.70;93.00
31369;DHT22;18004;48.416;10.066;2023-02-01T15:50:14;4.70;92.40
31369;DHT22;18004;48.416;10.066;2023-02-01T15:52:40;4.70;93.10
31369;DHT22;18004;48.416;10.066;2023-02-01T15:57:51;4.70;93.20
31369;DHT22;18004;48.416;10.066;2023-02-01T16:00:27;4.70;93.20
31369;DHT22;18004;48.416;10.066;2023-02-01T16:02:55;4.70;92.90
31369;DHT22;18004;48.416;10.066;2023-02-01T16:05:38;4.70;92.40
31369;DHT22;18004;48.416;10.066;2023-02-01T16:10:44;4.70;93.00
31369;DHT22;18004;48.416;10.066;2023-02-01T16:13:11;4.70;93.20
31369;DHT22;18004;48.416;10.066;2023-02-01T16:15:37;4.70;93.00
31369;DHT22;18004;48.416;10.066;2023-02-01T16:18:03;4.70;93.10
31369;DHT22;18004;48.416;10.066;2023-02-01T16:20:28;4.70;92.60
31369;DHT22;18004;48.416;10.066;2023-02-01T16:22:55;4.70;93.10
31369;DHT22;18004;48.416;10.066;2023-02-01T16:25:21;4.70;93.20
31369;DHT22;18004;48.416;10.066;2023-02-01T16:27:46;4.80;92.40
31369;DHT22;18004;48.416;10.066;2023-02-01T16:30:12;4.80;92.20
31369;DHT22;18004;48.416;10.066;2023-02-01T16:32:38;4.80;92.40
31369;DHT22;18004;48.416;10.066;2023-02-01T16:35:04;4.70;92.80
31369;DHT22;18004;48.416;10.066;2023-02-01T16:37:30;4.70;93.40
31369;DHT22;18004;48.416;10.066;2023-02-01T16:39:57;4.70;93.30
31369;DHT22;18004;48.416;10.066;2023-02-01T16:42:23;4.70;94.30
31369;DHT22;18004;48.416;10.066;2023-02-01T16:44:48;4.70;93.60
31369;DHT22;18004;48.416;10.066;2023-02-01T16:47:16;4.70;92.40
31369;DHT22;18004;48.416;10.066;2023-02-01T16:49:42;4.80;92.60
31369;DHT22;18004;48.416;10.066;2023-02-01T16:52:18;4.80;93.00
31369;DHT22;18004;48.416;10.066;2023-02-01T16:54:45;4.70;92.70
31369;DHT22;18004;48.416;10.066;2023-02-01T16:57:11;4.80;93.20
31369;DHT22;18004;48.416;10.066;2023-02-01T16:59:38;4.80;92.30
31369;DHT22;18004;48.416;10.066;2023-02-01T17:02:04;4.80;92.90
31369;DHT22;18004;48.416;10.066;2023-02-01T17:04:29;4.70;92.90
31369;DHT22;18004;48.416;10.066;2023-02-01T17:06:55;4.80;92.30
31369;DHT22;18004;48.416;10.066;2023-02-01T17:09:20;4.70;93.20
31369;DHT22;18004;48.416;10.066;2023-02-01T17:11:46;4.70;93.40
31369;DHT22;18004;48.416;10.066;2023-02-01T17:14:16;4.70;92.70
31369;DHT22;18004;48.416;10.066;2023-02-01T17:16:42;4.70;93.60
31369;DHT22;18004;48.416;10.066;2023-02-01T17:19:11;4.70;92.90
31369;DHT22;18004;48.416;10.066;2023-02-01T17:21:42;4.70;92.20
31369;DHT22;18004;48.416;10.066;2023-02-01T17:24:14;4.70;93.30
31369;DHT22;18004;48.416;10.066;2023-02-01T17:26:41;4.70;92.20
31369;DHT22;18004;48.416;10.066;2023-02-01T17:29:06;4.70;92.60
31369;DHT22;18004;48.416;10.066;2023-02-01T17:31:33;4.70;92.70
31369;DHT22;18004;48.416;10.066;2023-02-01T17:34:01;4.70;93.10
31369;DHT22;18004;48.416;10.066;2023-02-01T17:36:26;4.70;92.80
31369;DHT22;18004;48.416;10.066;2023-02-01T17:38:52;4.70;93.10
31369;DHT22;18004;48.416;10.066;2023-02-01T17:41:18;4.70;92.90
31369;DHT22;18004;48.416;10.066;2023-02-01T17:43:43;4.70;93.20
31369;DHT22;18004;48.416;10.066;2023-02-01T17:46:10;4.60;93.50